Time;durP1;ratioP1;P1;durP2;ratioP2;P2;SDS_P1;SDS_P2;PMS_P1;PMS_P2;Temp;Humidity;BMP_temperature;BMP_pressure;BME280_temperature;BME280_humidity;BME280_pressure;Samples;Min_cycle;Max_cycle;Signal;HPM_P1;HPM_P2
2022/10/19 00:00:04;;;;;;;52.45;29.27;;;;;;;7.78;90.99;94960.47;1671857;83;21509;-51
2022/10/19 00:02:35;;;;;;;38.75;22.62;;;;;;;7.75;91.13;94955.06;1681199;84;21026;-52
2022/10/19 00:05:04;;;;;;;45.75;22.15;;;;;;;7.70;90.87;94957.69;1706026;83;21032;-51
2022/10/19 00:07:30;;;;;;;41.42;25.02;;;;;;;7.65;90.71;94954.09;1685769;83;21436;-51
2022/10/19 00:09:57;;;;;;;50.40;24.70;;;;;;;7.62;91.05;94948.09;1689517;83;21476;-51
2022/10/19 00:12:24;;;;;;;40.12;21.52;;;;;;;7.61;91.16;94939.71;1702461;83;20976;-51
2022/10/19 00:14:51;;;;;;;38.38;21.25;;;;;;;7.50;91.21;94938.39;1708556;83;21028;-52
2022/10/19 00:17:19;;;;;;;37.08;22.05;;;;;;;7.38;91.67;94936.28;1682572;83;21001;-51
2022/10/19 00:19:47;;;;;;;38.55;22.20;;;;;;;7.27;91.73;94937.08;1702487;83;21873;-52
2022/10/19 00:22:14;;;;;;;42.20;23.05;;;;;;;7.19;92.21;94952.10;1698644;83;20964;-51
2022/10/19 00:24:41;;;;;;;44.77;24.65;;;;;;;7.18;92.80;94949.95;1673713;84;21030;-53
2022/10/19 00:27:09;;;;;;;42.53;24.45;;;;;;;7.23;92.99;94945.38;1701924;83;21085;-51
2022/10/19 00:29:36;;;;;;;33.88;20.62;;;;;;;7.23;93.04;94939.13;1687669;83;20966;-52
2022/10/19 00:32:03;;;;;;;30.80;19.30;;;;;;;7.27;93.03;94933.77;1691585;83;21254;-51
2022/10/19 00:34:30;;;;;;;39.67;19.92;;;;;;;7.28;93.29;94943.52;1691654;83;21168;-51
2022/10/19 00:36:57;;;;;;;33.73;20.08;;;;;;;7.33;93.26;94934.05;1693536;83;21041;-52
2022/10/19 00:39:23;;;;;;;39.18;21.10;;;;;;;7.36;93.43;94943.53;1702849;83;20968;-52
2022/10/19 00:41:51;;;;;;;38.20;21.65;;;;;;;7.36;92.94;94939.42;1690379;83;21618;-51
2022/10/19 00:44:29;;;;;;;33.78;19.37;;;;;;;7.36;93.18;94936.69;1671943;83;21892;-51
2022/10/19 00:46:59;;;;;;;33.58;17.75;;;;;;;7.38;93.08;94936.28;1695086;83;21035;-52
2022/10/19 00:49:28;;;;;;;31.27;18.85;;;;;;;7.36;92.46;94930.46;1697749;83;21425;-52
2022/10/19 00:52:00;;;;;;;27.75;16.12;;;;;;;7.32;92.55;94929.16;1679886;83;21031;-52
2022/10/19 00:54:27;;;;;;;32.15;17.85;;;;;;;7.32;92.56;94930.52;1701947;83;21597;-50
2022/10/19 00:56:54;;;;;;;30.37;17.05;;;;;;;7.30;92.54;94931.55;1712881;83;21141;-51
2022/10/19 00:59:23;;;;;;;27.62;17.02;;;;;;;7.30;92.54;94926.08;1681949;83;21005;-52
2022/10/19 01:01:51;;;;;;;29.82;15.45;;;;;;;7.33;92.57;94925.22;1690605;83;21032;-51
2022/10/19 01:04:22;;;;;;;29.42;15.88;;;;;;;7.32;92.39;94923.69;1689510;83;21487;-51
2022/10/19 01:06:49;;;;;;;25.37;15.70;;;;;;;7.30;92.40;94920.59;1688819;83;21527;-51
2022/10/19 01:09:16;;;;;;;26.20;16.37;;;;;;;7.35;92.55;94918.73;1708308;83;21249;-51
2022/10/19 01:12:03;;;;;;;29.23;17.37;;;;;;;7.38;92.40;94912.41;1704801;83;21440;-51
2022/10/19 01:15:07;;;;;;;24.37;13.38;;;;;;;7.40;92.17;94914.73;1704263;83;21004;-52
2022/10/19 01:17:48;;;;;;;25.87;15.10;;;;;;;7.41;91.96;94912.17;1667694;83;21000;-51
2022/10/19 01:21:07;;;;;;;23.57;14.45;;;;;;;7.32;91.78;94915.48;1686235;83;21061;-51
2022/10/19 01:24:07;;;;;;;29.87;16.05;;;;;;;7.22;91.79;94906.90;1681830;83;21182;-52
2022/10/19 01:26:57;;;;;;;25.52;13.65;;;;;;;7.13;92.27;94898.47;1687926;83;20964;-54
2022/10/19 01:30:03;;;;;;;18.35;11.50;;;;;;;7.13;92.40;94897.71;1695430;83;20964;-53
2022/10/19 01:32:58;;;;;;;20.35;13.28;;;;;;;7.12;92.26;94893.44;1699442;83;21008;-52
2022/10/19 01:35:31;;;;;;;31.12;14.80;;;;;;;7.10;92.17;94893.06;1697576;83;20980;-52
2022/10/19 01:38:36;;;;;;;24.00;12.53;;;;;;;7.10;92.38;94897.16;1676034;83;21187;-53
2022/10/19 01:41:23;;;;;;;17.85;11.40;;;;;;;7.08;92.13;94890.77;1690270;83;21024;-51
2022/10/19 01:43:59;;;;;;;17.30;11.50;;;;;;;7.07;92.08;94897.25;1700903;83;21060;-51
2022/10/19 01:46:46;;;;;;;19.75;11.28;;;;;;;7.05;91.63;94896.30;1678938;83;21027;-51
2022/10/19 01:49:18;;;;;;;30.32;11.48;;;;;;;7.04;91.87;94900.22;1705491;83;20980;-51
2022/10/19 01:51:52;;;;;;;29.60;17.00;;;;;;;7.08;92.33;94892.13;1691001;83;21233;-52
2022/10/19 01:54:20;;;;;;;23.90;12.80;;;;;;;7.14;92.31;94889.06;1688958;83;21990;-52
2022/10/19 01:56:47;;;;;;;17.12;11.33;;;;;;;7.08;91.28;94885.12;1681660;83;21105;-51
2022/10/19 01:59:14;;;;;;;18.20;11.20;;;;;;;6.97;91.25;94894.11;1685990;83;21472;-51
2022/10/19 02:01:44;;;;;;;17.17;12.30;;;;;;;6.88;91.34;94888.44;1700019;83;20965;-53
2022/10/19 02:04:13;;;;;;;19.92;12.33;;;;;;;6.82;91.49;94887.37;1691033;83;21195;-52
2022/10/19 02:06:40;;;;;;;23.95;12.58;;;;;;;6.79;91.95;94886.84;1673085;83;21012;-53
2022/10/19 02:09:16;;;;;;;16.48;11.30;;;;;;;6.83;92.50;94884.80;1706293;83;21523;-52
2022/10/19 02:11:38;;;;;;;22.62;11.43;;;;;;;6.83;92.09;94891.06;1686567;83;21015;-52
2022/10/19 02:14:10;;;;;;;21.73;12.55;;;;;;;6.81;91.88;94882.51;1692748;83;20992;-52
2022/10/19 02:16:44;;;;;;;33.00;20.37;;;;;;;6.85;92.54;94880.47;1685120;83;21143;-51
2022/10/19 02:19:12;;;;;;;82.57;36.00;;;;;;;6.93;92.47;94873.69;1694257;83;20965;-50
2022/10/19 02:21:39;;;;;;;43.02;23.95;;;;;;;6.92;92.28;94874.09;1696497;83;21081;-52
2022/10/19 02:24:06;;;;;;;54.23;26.02;;;;;;;6.90;92.12;94875.88;1693379;83;20980;-57
2022/10/19 02:26:34;;;;;;;40.23;20.85;;;;;;;6.84;91.66;94878.14;1695140;83;21172;-50
2022/10/19 02:29:01;;;;;;;31.70;17.37;;;;;;;6.81;91.88;94868.05;1692427;83;21240;-53
2022/10/19 02:31:30;;;;;;;37.23;18.92;;;;;;;6.82;92.10;94869.02;1700807;83;21101;-52
2022/10/19 02:33:56;;;;;;;39.75;19.82;;;;;;;6.90;92.57;94865.55;1678032;83;21009;-50
2022/10/19 02:36:25;;;;;;;59.27;25.70;;;;;;;6.96;92.50;94870.69;1713065;83;20968;-51
2022/10/19 02:38:53;;;;;;;50.90;22.62;;;;;;;7.04;92.88;94872.87;1713000;83;20996;-53
2022/10/19 02:41:39;;;;;;;45.20;21.30;;;;;;;7.14;92.80;94872.66;1682725;83;22097;-53
2022/10/19 02:44:26;;;;;;;33.63;17.60;;;;;;;7.27;92.81;94877.67;1697339;83;21575;-52
2022/10/19 02:47:02;;;;;;;27.27;14.58;;;;;;;7.36;92.25;94873.75;1712367;83;21059;-50
2022/10/19 02:49:29;;;;;;;40.70;18.55;;;;;;;7.31;92.06;94876.98;1705377;83;21000;-51
2022/10/19 02:51:59;;;;;;;65.87;25.00;;;;;;;7.32;91.87;94880.52;1696603;83;20989;-51
2022/10/19 02:54:26;;;;;;;48.55;21.52;;;;;;;7.35;92.13;94873.58;1664042;84;21188;-52
2022/10/19 02:56:55;;;;;;;45.17;22.07;;;;;;;7.46;92.32;94885.08;1701363;84;21014;-52
2022/10/19 02:59:22;;;;;;;48.23;23.42;;;;;;;7.57;92.41;94876.05;1706292;83;21125;-53
2022/10/19 03:01:50;;;;;;;50.83;22.52;;;;;;;7.72;92.47;94884.11;1658173;83;21070;-52
2022/10/19 03:04:17;;;;;;;45.08;21.87;;;;;;;7.88;92.42;94872.42;1669254;83;21017;-53
2022/10/19 03:06:44;;;;;;;42.58;20.00;;;;;;;8.00;92.29;94867.03;1699590;83;21144;-52
2022/10/19 03:09:11;;;;;;;43.55;18.98;;;;;;;8.12;91.83;94857.36;1691184;83;21086;-51
2022/10/19 03:11:39;;;;;;;28.10;16.70;;;;;;;8.23;91.42;94857.30;1681429;83;21528;-52
2022/10/19 03:14:08;;;;;;;57.58;20.90;;;;;;;8.27;90.86;94866.20;1697257;83;21027;-52
2022/10/19 03:16:34;;;;;;;63.13;23.85;;;;;;;8.27;90.47;94868.94;1690512;83;21004;-52
2022/10/19 03:19:02;;;;;;;49.98;20.23;;;;;;;8.26;90.17;94861.91;1700278;83;21381;-52
2022/10/19 03:21:29;;;;;;;34.58;18.12;;;;;;;8.23;89.86;94854.56;1675749;83;21376;-51
2022/10/19 03:23:55;;;;;;;39.40;19.15;;;;;;;8.22;89.95;94849.52;1666984;84;21026;-52
2022/10/19 03:26:22;;;;;;;45.48;20.77;;;;;;;8.22;89.94;94855.76;1701290;83;21440;-52
2022/10/19 03:28:49;;;;;;;72.27;24.95;;;;;;;8.24;90.17;94849.86;1702970;83;21535;-53
2022/10/19 03:31:15;;;;;;;43.45;22.70;;;;;;;8.23;90.07;94850.45;1667966;83;21216;-52
2022/10/19 03:33:42;;;;;;;38.20;20.30;;;;;;;8.21;90.19;94853.47;1701759;83;21004;-52
2022/10/19 03:36:28;;;;;;;43.95;20.08;;;;;;;8.18;90.33;94860.56;1681733;83;21042;-51
2022/10/19 03:38:58;;;;;;;31.50;18.27;;;;;;;8.21;89.93;94855.59;1693615;83;21567;-52
2022/10/19 03:41:29;;;;;;;34.92;17.12;;;;;;;8.20;89.47;94844.45;1679613;83;21022;-52
2022/10/19 03:43:56;;;;;;;34.80;18.23;;;;;;;8.23;89.77;94853.80;1710324;83;21154;-52
2022/10/19 03:46:23;;;;;;;41.28;21.82;;;;;;;8.25;89.92;94849.41;1712892;83;20980;-52
2022/10/19 03:48:49;;;;;;;36.20;19.98;;;;;;;8.33;90.16;94854.13;1704196;83;21019;-53
2022/10/19 03:51:19;;;;;;;43.50;20.43;;;;;;;8.43;90.03;94853.85;1705314;83;21105;-52
2022/10/19 03:53:49;;;;;;;48.10;29.92;;;;;;;8.56;89.70;94856.66;1688240;83;21107;-52
2022/10/19 03:56:18;;;;;;;52.60;30.77;;;;;;;8.62;89.36;94851.59;1690809;83;23091;-51
2022/10/19 03:58:46;;;;;;;92.22;41.42;;;;;;;8.68;89.08;94856.73;1668015;83;21024;-52
2022/10/19 04:01:16;;;;;;;91.57;50.58;;;;;;;8.72;88.82;94853.88;1699246;83;20973;-54
2022/10/19 04:03:43;;;;;;;104.87;56.45;;;;;;;8.73;88.77;94849.34;1687494;83;20974;-52
2022/10/19 04:06:15;;;;;;;101.33;56.58;;;;;;;8.77;88.50;94856.13;1700794;83;20986;-52
2022/10/19 04:08:43;;;;;;;87.60;46.83;;;;;;;8.84;88.37;94856.67;1684750;83;21226;-52
2022/10/19 04:11:14;;;;;;;64.50;31.87;;;;;;;8.86;88.03;94855.66;1664842;83;21195;-52
2022/10/19 04:13:40;;;;;;;56.25;28.50;;;;;;;8.91;87.73;94852.38;1680115;83;21049;-53
2022/10/19 04:16:09;;;;;;;45.00;23.73;;;;;;;8.92;87.89;94853.31;1673949;84;21046;-53
2022/10/19 04:18:36;;;;;;;49.50;24.98;;;;;;;8.96;87.83;94851.84;1671614;83;21038;-52
2022/10/19 04:21:04;;;;;;;53.80;26.75;;;;;;;8.96;87.84;94849.89;1681273;83;21904;-52
2022/10/19 04:23:34;;;;;;;208.07;34.63;;;;;;;9.01;88.09;94848.56;1684560;83;21038;-52
2022/10/19 04:26:04;;;;;;;48.40;23.18;;;;;;;9.04;88.13;94838.12;1675133;83;21478;-53
2022/10/19 04:28:32;;;;;;;40.73;22.52;;;;;;;9.09;88.40;94843.06;1678725;83;21096;-51
2022/10/19 04:31:04;;;;;;;34.27;19.75;;;;;;;9.15;88.14;94840.72;1689274;83;21184;-51
2022/10/19 04:33:32;;;;;;;59.90;22.02;;;;;;;9.23;87.89;94838.55;1691493;83;21210;-51
2022/10/19 04:36:01;;;;;;;43.87;18.65;;;;;;;9.33;87.69;94831.97;1675840;83;20995;-53
2022/10/19 04:38:29;;;;;;;47.00;25.85;;;;;;;9.43;87.28;94828.15;1694863;83;21015;-53
2022/10/19 04:41:03;;;;;;;45.23;22.45;;;;;;;9.53;86.88;94829.20;1672913;83;20980;-54
2022/10/19 04:43:30;;;;;;;32.28;20.80;;;;;;;9.62;86.43;94834.05;1705231;83;21095;-49
2022/10/19 04:45:58;;;;;;;37.48;19.40;;;;;;;9.62;85.99;94828.55;1692382;83;21222;-50
2022/10/19 04:48:25;;;;;;;48.40;21.77;;;;;;;9.55;85.74;94823.25;1680998;83;21021;-48
2022/10/19 04:50:54;;;;;;;38.90;21.05;;;;;;;9.47;86.06;94817.20;1703466;83;21049;-49
2022/10/19 04:53:23;;;;;;;50.88;24.25;;;;;;;9.48;86.55;94816.61;1684579;83;21018;-54
2022/10/19 04:55:50;;;;;;;47.60;28.77;;;;;;;9.54;86.90;94817.59;1698123;83;21037;-50
2022/10/19 04:58:17;;;;;;;52.27;28.12;;;;;;;9.59;86.73;94817.83;1681065;83;22125;-52
2022/10/19 05:00:43;;;;;;;54.08;29.25;;;;;;;9.61;86.67;94821.52;1705317;83;21444;-51
2022/10/19 05:03:10;;;;;;;46.45;27.37;;;;;;;9.63;86.57;94823.22;1683747;83;21009;-52
2022/10/19 05:05:38;;;;;;;43.80;26.68;;;;;;;9.71;86.57;94832.19;1708035;83;21506;-52
2022/10/19 05:08:05;;;;;;;59.42;23.07;;;;;;;9.85;86.08;94830.38;1709559;83;20996;-53
2022/10/19 05:10:31;;;;;;;57.45;21.07;;;;;;;9.93;85.65;94839.14;1678104;84;21105;-52
2022/10/19 05:13:01;;;;;;;90.92;24.52;;;;;;;9.94;85.21;94839.30;1691646;83;21094;-52
2022/10/19 05:15:29;;;;;;;41.85;26.35;;;;;;;9.95;85.56;94847.74;1688434;83;21098;-53
2022/10/19 05:17:56;;;;;;;33.65;22.48;;;;;;;10.00;85.31;94855.42;1703860;83;21751;-53
2022/10/19 05:20:23;;;;;;;29.90;18.73;;;;;;;9.97;85.13;94854.94;1653487;83;21475;-51
2022/10/19 05:22:51;;;;;;;29.20;19.60;;;;;;;9.94;84.97;94851.08;1698825;83;21134;-53
2022/10/19 05:25:17;;;;;;;29.02;19.20;;;;;;;9.99;85.21;94852.52;1688110;83;21095;-53
2022/10/19 05:27:44;;;;;;;28.73;18.95;;;;;;;10.04;84.87;94841.00;1702603;83;21062;-54
2022/10/19 05:30:13;;;;;;;35.85;19.92;;;;;;;10.11;84.87;94847.63;1665009;84;21504;-54
2022/10/19 05:32:39;;;;;;;50.58;21.52;;;;;;;10.21;84.70;94846.53;1706284;83;21063;-53
2022/10/19 05:35:07;;;;;;;48.40;21.45;;;;;;;10.32;84.13;94845.59;1678186;83;21142;-53
2022/10/19 05:37:35;;;;;;;36.42;21.05;;;;;;;10.36;83.51;94842.11;1684932;83;21004;-53
2022/10/19 05:40:04;;;;;;;58.38;30.55;;;;;;;10.37;83.04;94845.03;1696992;83;21186;-52
2022/10/19 05:42:31;;;;;;;49.98;31.90;;;;;;;10.36;83.15;94845.61;1664634;84;21049;-55
2022/10/19 05:45:00;;;;;;;71.85;40.48;;;;;;;10.40;83.31;94841.38;1675691;83;21028;-55
2022/10/19 05:47:29;;;;;;;53.10;31.12;;;;;;;10.50;83.41;94844.41;1701478;83;21180;-52
2022/10/19 05:49:55;;;;;;;41.15;26.00;;;;;;;10.58;83.22;94831.93;1662521;83;21568;-55
2022/10/19 05:52:22;;;;;;;36.83;24.43;;;;;;;10.62;83.08;94832.58;1687742;83;21120;-54
2022/10/19 05:54:50;;;;;;;38.80;21.27;;;;;;;10.62;83.27;94840.23;1670023;83;21159;-55
2022/10/19 05:57:17;;;;;;;67.78;41.90;;;;;;;10.68;83.36;94839.06;1680692;83;21141;-58
2022/10/19 05:59:44;;;;;;;55.90;31.68;;;;;;;10.78;83.17;94859.34;1688677;82;21785;-54
2022/10/19 06:02:13;;;;;;;44.40;28.12;;;;;;;10.83;82.84;94870.53;1682616;82;21014;-56
2022/10/19 06:04:39;;;;;;;51.40;28.32;;;;;;;10.76;82.62;94874.91;1655434;83;21068;-57
2022/10/19 06:07:06;;;;;;;57.95;30.05;;;;;;;10.70;82.80;94869.66;1684711;82;21567;-58
2022/10/19 06:09:35;;;;;;;57.10;29.77;;;;;;;10.66;83.00;94871.73;1599411;83;22293;-55
2022/10/19 06:12:02;;;;;;;60.20;30.15;;;;;;;10.64;83.39;94876.91;1639053;85;21282;-54
2022/10/19 06:14:31;;;;;;;51.60;28.35;;;;;;;10.63;83.74;94875.38;1625568;85;21094;-54
2022/10/19 06:17:01;;;;;;;66.28;36.80;;;;;;;10.69;84.09;94881.88;1628541;85;21394;-58
2022/10/19 06:19:28;;;;;;;60.80;34.23;;;;;;;10.75;84.17;94877.50;1627366;85;21682;-61
2022/10/19 06:21:56;;;;;;;66.65;36.23;;;;;;;10.81;84.06;94877.70;1620878;86;21319;-60
2022/10/19 06:24:23;;;;;;;61.65;31.93;;;;;;;10.83;84.18;94883.53;1608646;86;21112;-55
2022/10/19 06:26:53;;;;;;;62.43;29.40;;;;;;;10.89;84.29;94890.00;1622199;85;21081;-57
2022/10/19 06:29:20;;;;;;;69.22;31.30;;;;;;;10.91;83.92;94884.22;1606112;86;21034;-59
2022/10/19 06:31:47;;;;;;;71.95;32.28;;;;;;;10.85;84.08;94894.27;1631538;85;21047;-56
2022/10/19 06:34:15;;;;;;;45.35;28.23;;;;;;;10.85;84.58;94901.74;1609267;86;37810;-56
2022/10/19 06:36:43;;;;;;;45.15;30.37;;;;;;;10.83;84.40;94906.30;1551607;90;21814;-54
2022/10/19 06:39:10;;;;;;;46.18;29.95;;;;;;;10.81;85.10;94898.34;1574653;89;21057;-57
2022/10/19 06:41:37;;;;;;;51.88;34.48;;;;;;;10.84;85.22;94895.45;1541322;89;21093;-58
2022/10/19 06:44:15;;;;;;;54.27;34.90;;;;;;;10.83;85.27;94902.17;1537205;91;21509;-57
2022/10/19 06:46:43;;;;;;;57.55;36.53;;;;;;;10.89;85.69;94895.50;1585825;88;21051;-57
2022/10/19 06:49:11;;;;;;;73.47;46.30;;;;;;;10.91;85.66;94893.86;1560836;89;21259;-57
2022/10/19 06:51:39;;;;;;;75.80;49.23;;;;;;;10.93;85.80;94892.80;1575629;89;21095;-59
2022/10/19 06:54:08;;;;;;;79.07;54.58;;;;;;;10.93;86.34;94895.55;1526109;92;21078;-59
2022/10/19 06:56:34;;;;;;;77.00;50.28;;;;;;;10.98;86.22;94888.72;1584410;89;21132;-57
2022/10/19 06:59:01;;;;;;;55.92;38.25;;;;;;;10.95;85.99;94888.99;1532041;90;21121;-61
2022/10/19 07:01:29;;;;;;;50.85;35.68;;;;;;;10.91;85.91;94889.73;1576721;89;21477;-60
2022/10/19 07:03:55;;;;;;;53.70;37.95;;;;;;;10.88;86.21;94882.37;1560207;89;21564;-58
2022/10/19 07:06:26;;;;;;;68.52;45.83;;;;;;;10.92;86.39;94884.38;1569887;89;21143;-60
2022/10/19 07:08:53;;;;;;;68.50;44.53;;;;;;;10.96;86.34;94884.27;1530177;92;21634;-57
2022/10/19 07:11:22;;;;;;;60.78;39.55;;;;;;;11.00;86.12;94889.80;1540101;90;21609;-59
2022/10/19 07:13:50;;;;;;;55.45;36.05;;;;;;;11.02;86.15;94890.11;1580469;89;22022;-61
2022/10/19 07:16:18;;;;;;;55.63;36.38;;;;;;;11.05;85.87;94887.87;1578337;89;21601;-59
2022/10/19 07:18:45;;;;;;;60.90;39.98;;;;;;;11.03;85.91;94894.43;1566330;89;21553;-56
2022/10/19 07:21:14;;;;;;;68.85;47.35;;;;;;;11.06;86.50;94896.29;1558242;90;21150;-56
2022/10/19 07:23:43;;;;;;;90.67;55.90;;;;;;;11.10;86.44;94896.14;1584160;89;21144;-59
2022/10/19 07:26:20;;;;;;;96.82;57.83;;;;;;;11.12;86.75;94901.97;1551425;89;22013;-59
2022/10/19 07:28:47;;;;;;;74.47;47.35;;;;;;;11.11;86.69;94903.19;1556663;89;21400;-59
2022/10/19 07:31:18;;;;;;;70.17;41.58;;;;;;;11.06;86.90;94896.29;1573730;90;21176;-58
2022/10/19 07:33:47;;;;;;;91.25;56.77;;;;;;;11.07;87.00;94897.83;1576907;88;21213;-55
2022/10/19 07:36:14;;;;;;;70.03;45.98;;;;;;;11.10;86.53;94898.30;1582064;89;21049;-55
2022/10/19 07:38:41;;;;;;;69.27;44.23;;;;;;;11.01;86.64;94900.21;1561412;88;21146;-56
2022/10/19 07:41:14;;;;;;;72.67;49.25;;;;;;;10.96;87.14;94898.03;1569109;88;21243;-57
2022/10/19 07:43:42;;;;;;;67.10;43.50;;;;;;;10.90;87.37;94895.07;1556370;89;25514;-58
2022/10/19 07:46:14;;;;;;;60.65;41.15;;;;;;;10.83;87.57;94901.42;1574610;88;21088;-59
2022/10/19 07:48:41;;;;;;;75.47;51.18;;;;;;;10.79;87.80;94890.52;1567854;89;21262;-56
2022/10/19 07:51:09;;;;;;;93.33;62.85;;;;;;;10.74;88.06;94887.56;1504292;92;21684;-59
2022/10/19 07:53:37;;;;;;;96.87;64.07;;;;;;;10.69;88.63;94892.27;1515183;92;21234;-59
2022/10/19 07:56:08;;;;;;;84.03;54.40;;;;;;;10.68;88.90;94888.59;1580282;88;21098;-58
2022/10/19 07:58:35;;;;;;;80.70;53.15;;;;;;;10.68;89.00;94885.84;1587921;89;21053;-57
2022/10/19 08:01:09;;;;;;;84.75;49.38;;;;;;;10.66;89.17;94884.11;1573943;88;21110;-59
2022/10/19 08:03:37;;;;;;;64.25;40.20;;;;;;;10.71;89.50;94879.45;1529984;91;21245;-54
2022/10/19 08:06:07;;;;;;;81.00;47.75;;;;;;;10.77;89.36;94875.06;1558592;89;21148;-55
2022/10/19 08:08:34;;;;;;;72.12;46.55;;;;;;;10.82;89.09;94867.61;1573208;89;21110;-55
2022/10/19 08:11:11;;;;;;;72.78;42.73;;;;;;;10.87;88.87;94867.66;1565608;89;21597;-56
2022/10/19 08:13:39;;;;;;;59.45;38.80;;;;;;;10.93;89.00;94862.52;1583190;89;21829;-57
2022/10/19 08:16:31;;;;;;;43.98;29.90;;;;;;;11.02;89.08;94859.83;1562642;90;21340;-56
2022/10/19 08:19:06;;;;;;;51.53;32.42;;;;;;;11.09;88.81;94859.59;1565113;88;21194;-55
2022/10/19 08:21:35;;;;;;;49.27;34.45;;;;;;;11.19;88.19;94863.94;1581833;88;21072;-57
2022/10/19 08:24:04;;;;;;;60.35;36.15;;;;;;;11.27;87.98;94861.70;1567377;89;21049;-60
2022/10/19 08:26:36;;;;;;;54.63;35.90;;;;;;;11.38;88.00;94854.59;1574431;89;21167;-55
2022/10/19 08:29:07;;;;;;;;;;;;;;;11.47;87.44;94853.28;1577341;89;21025;-57
2022/10/19 08:31:34;;;;;;;44.88;30.82;;;;;;;11.43;87.18;94848.52;1573758;88;20675;-55
2022/10/19 08:34:02;;;;;;;41.95;25.77;;;;;;;11.41;87.04;94844.08;1587487;87;21098;-55
2022/10/19 08:36:31;;;;;;;53.92;36.28;;;;;;;11.51;87.32;94847.03;1573072;88;21654;-59
2022/10/19 08:38:59;;;;;;;42.33;24.92;;;;;;;11.66;86.75;94847.28;1574437;89;21476;-55
2022/10/19 08:41:34;;;;;;;39.92;27.40;;;;;;;11.80;86.54;94842.02;1574589;89;21263;-56
2022/10/19 08:44:24;;;;;;;69.25;36.40;;;;;;;11.91;85.83;94838.22;1578999;88;21051;-57
2022/10/19 08:47:25;;;;;;;58.58;31.12;;;;;;;12.00;85.36;94841.63;1564694;89;21082;-57
2022/10/19 08:49:52;;;;;;;54.73;29.70;;;;;;;12.08;84.67;94836.77;1578344;89;21049;-58
2022/10/19 08:52:31;;;;;;;68.42;38.65;;;;;;;12.16;84.40;94832.52;1582845;89;21692;-59
2022/10/19 08:55:08;;;;;;;97.70;51.37;;;;;;;12.19;84.18;94834.36;1582829;88;21897;-57
2022/10/19 08:57:47;;;;;;;94.22;50.80;;;;;;;12.26;84.52;94836.07;1569361;89;21113;-57
2022/10/19 09:00:22;;;;;;;92.37;50.45;;;;;;;12.36;84.67;94834.86;1577197;89;21139;-59
2022/10/19 09:03:02;;;;;;;84.40;47.53;;;;;;;12.43;84.26;94835.34;1574569;88;21144;-55
2022/10/19 09:05:44;;;;;;;81.53;43.68;;;;;;;12.46;84.28;94824.77;1572529;89;21224;-56
2022/10/19 09:08:11;;;;;;;64.03;37.78;;;;;;;12.55;84.51;94822.79;1574722;88;22340;-57
2022/10/19 09:10:40;;;;;;;72.03;39.33;;;;;;;12.60;84.19;94818.66;1551553;90;21103;-56
2022/10/19 09:13:39;;;;;;;80.83;41.88;;;;;;;12.65;84.31;94818.83;1561744;89;21147;-57
2022/10/19 09:16:09;;;;;;;65.97;39.05;;;;;;;12.70;84.26;94813.32;1574588;89;21144;-60
2022/10/19 09:18:36;;;;;;;72.37;38.20;;;;;;;12.80;84.62;94811.48;1568834;88;22528;-55
2022/10/19 09:21:19;;;;;;;72.60;38.78;;;;;;;13.07;84.85;94814.89;1534410;90;21186;-56
2022/10/19 09:24:07;;;;;;;69.03;36.30;;;;;;;13.36;83.91;94814.55;1583832;89;21092;-55
2022/10/19 09:26:38;;;;;;;64.05;37.83;;;;;;;13.52;82.79;94809.30;1580757;89;21169;-57
2022/10/19 09:29:17;;;;;;;57.15;35.33;;;;;;;13.60;82.51;94798.83;1579464;89;21584;-57
2022/10/19 09:31:46;;;;;;;66.55;35.98;;;;;;;13.70;81.97;94794.05;1542481;89;21075;-58
2022/10/19 09:34:35;;;;;;;50.52;30.02;;;;;;;13.93;81.42;94789.19;1511434;92;21513;-57
2022/10/19 09:37:01;;;;;;;52.38;32.63;;;;;;;14.44;81.91;94787.27;1524349;91;21221;-58
2022/10/19 09:39:29;;;;;;;75.30;37.08;;;;;;;15.14;80.81;94786.44;1538065;91;21063;-56
2022/10/19 09:42:28;;;;;;;51.33;34.03;;;;;;;15.79;78.51;94795.07;1557112;89;21083;-57
2022/10/19 09:44:55;;;;;;;55.05;33.10;;;;;;;16.35;75.69;94790.70;1579666;88;21042;-58
2022/10/19 09:47:37;;;;;;;49.08;31.97;;;;;;;16.75;72.65;94780.27;1565333;89;21330;-58
2022/10/19 09:50:24;;;;;;;38.38;26.17;;;;;;;17.07;71.79;94779.16;1571693;88;21341;-55
2022/10/19 09:52:56;;;;;;;28.92;20.45;;;;;;;17.69;68.62;94777.93;1541078;91;21211;-56
2022/10/19 09:55:41;;;;;;;25.88;17.17;;;;;;;17.92;66.92;94775.47;1581529;89;21670;-58
2022/10/19 09:58:17;;;;;;;23.52;17.60;;;;;;;18.12;66.73;94771.20;1567548;88;21148;-57
2022/10/19 10:00:49;;;;;;;22.70;16.07;;;;;;;18.76;66.11;94768.74;1600622;87;21295;-58
2022/10/19 10:03:39;;;;;;;19.95;15.53;;;;;;;19.61;63.97;94760.33;1582710;88;21070;-55
2022/10/19 10:06:13;;;;;;;12.35;10.13;;;;;;;20.31;59.96;94764.44;1583894;88;21015;-60
2022/10/19 10:08:56;;;;;;;12.33;9.75;;;;;;;20.82;57.43;94758.86;1582927;88;21168;-56
2022/10/19 10:11:38;;;;;;;15.05;12.00;;;;;;;21.36;55.42;94759.95;1541837;91;21718;-56
2022/10/19 10:14:32;;;;;;;30.65;21.45;;;;;;;22.01;55.65;94751.80;1535088;91;21600;-56
2022/10/19 10:17:05;;;;;;;17.65;13.53;;;;;;;22.32;53.91;94752.69;1530778;93;21112;-55
2022/10/19 10:19:34;;;;;;;12.07;9.35;;;;;;;21.91;52.37;94748.44;1544573;92;21052;-56
2022/10/19 10:22:03;;;;;;;14.13;9.08;;;;;;;21.26;51.91;94751.75;1584971;89;21086;-57
2022/10/19 10:24:32;;;;;;;14.80;8.05;;;;;;;20.43;53.35;94738.62;1568395;88;21132;-60
2022/10/19 10:27:04;;;;;;;9.38;7.87;;;;;;;20.16;54.45;94732.45;1571615;89;21184;-58
2022/10/19 10:29:34;;;;;;;16.73;11.55;;;;;;;20.20;54.63;94730.91;1542823;89;21156;-55
2022/10/19 10:32:19;;;;;;;24.77;16.50;;;;;;;20.11;55.15;94731.80;1583080;89;21060;-56
2022/10/19 10:34:48;;;;;;;38.28;22.50;;;;;;;19.95;56.40;94725.55;1555067;90;21169;-58
2022/10/19 10:37:23;;;;;;;37.03;23.43;;;;;;;19.83;57.29;94717.69;1590358;88;21104;-55
2022/10/19 10:39:53;;;;;;;25.65;15.68;;;;;;;19.68;57.58;94724.92;1563009;90;21282;-58
2022/10/19 10:42:26;;;;;;;28.00;18.55;;;;;;;19.36;58.54;94713.83;1538624;91;21088;-57
2022/10/19 10:44:52;;;;;;;;;;;;;;;19.05;58.86;94707.64;1578111;89;21163;-56
2022/10/19 10:47:22;;;;;;;16.73;12.20;;;;;;;18.84;59.64;94711.89;1575162;89;20161;-57
2022/10/19 10:50:00;;;;;;;25.10;12.37;;;;;;;18.66;60.06;94707.49;1558584;89;21054;-58
2022/10/19 10:52:30;;;;;;;14.43;10.18;;;;;;;18.47;61.04;94708.42;1579300;88;21760;-56
2022/10/19 10:55:02;;;;;;;25.55;10.88;;;;;;;18.21;61.77;94704.32;1587404;88;21519;-58
2022/10/19 10:57:34;;;;;;;14.13;9.05;;;;;;;18.02;62.32;94703.05;1586586;88;21041;-58
2022/10/19 11:00:13;;;;;;;13.87;9.67;;;;;;;17.83;63.13;94690.13;1598033;88;21103;-58
2022/10/19 11:03:02;;;;;;;12.50;9.80;;;;;;;17.66;63.73;94685.70;1584044;89;21635;-56
2022/10/19 11:05:50;;;;;;;15.78;10.90;;;;;;;17.48;64.55;94681.89;1579010;89;21018;-58
2022/10/19 11:08:45;;;;;;;13.00;9.75;;;;;;;17.52;64.96;94672.08;1583942;89;21490;-57
2022/10/19 11:11:30;;;;;;;26.27;10.00;;;;;;;17.81;65.57;94681.52;1580941;89;21045;-59
2022/10/19 11:14:27;;;;;;;12.82;9.75;;;;;;;18.35;64.71;94678.36;1552662;90;21059;-56
2022/10/19 11:16:58;;;;;;;12.47;9.98;;;;;;;18.56;63.51;94676.16;1557869;89;21616;-60
2022/10/19 11:19:31;;;;;;;14.98;9.75;;;;;;;18.33;63.11;94675.92;1560177;90;21033;-59
2022/10/19 11:22:04;;;;;;;12.50;9.48;;;;;;;18.02;62.99;94673.17;1549355;89;21576;-61
2022/10/19 11:24:55;;;;;;;13.18;8.70;;;;;;;17.62;63.71;94671.27;1578121;88;21630;-56
2022/10/19 11:27:44;;;;;;;29.02;11.57;;;;;;;17.21;64.36;94669.84;1578339;88;21073;-59
2022/10/19 11:30:20;;;;;;;15.80;10.15;;;;;;;16.92;65.46;94661.73;1558536;89;21127;-58
2022/10/19 11:33:02;;;;;;;24.70;10.90;;;;;;;16.74;65.85;94660.66;1521216;92;21945;-56
2022/10/19 11:35:54;;;;;;;18.82;8.65;;;;;;;16.58;66.77;94667.53;1541689;91;22018;-59
2022/10/19 11:38:57;;;;;;;12.50;7.37;;;;;;;16.49;67.29;94655.20;1539683;91;21055;-57
2022/10/19 11:41:39;;;;;;;15.40;7.58;;;;;;;16.43;67.54;94645.27;1572944;88;21130;-57
2022/10/19 11:44:22;;;;;;;19.30;7.92;;;;;;;16.37;67.87;94645.84;1531518;89;21219;-59